createdAt,value
2023-03-16T00:00:18.213Z,27.49
2023-03-16T00:04:18.117Z,27.50
2023-03-16T00:56:13.472Z,27.70
2023-03-16T01:00:14.380Z,27.67
2023-03-16T01:04:14.374Z,27.73
2023-03-16T01:08:14.342Z,27.71
2023-03-16T01:12:14.342Z,27.69
2023-03-16T01:16:14.311Z,27.64
2023-03-16T01:20:14.274Z,27.59
2023-03-16T01:24:14.252Z,27.51
2023-03-16T01:28:14.232Z,27.47
2023-03-16T01:32:14.190Z,27.46
2023-03-16T01:36:14.176Z,27.44
2023-03-16T01:40:14.176Z,27.42
2023-03-16T01:44:14.251Z,27.35
2023-03-16T01:48:14.326Z,27.38
2023-03-16T01:52:14.351Z,27.38
2023-03-16T01:56:14.453Z,27.39
2023-03-16T02:00:14.553Z,27.30
2023-03-16T02:04:14.580Z,27.27
2023-03-16T02:08:14.574Z,27.25
2023-03-16T02:12:14.606Z,27.25
2023-03-16T02:16:14.711Z,27.23
2023-03-16T02:20:14.678Z,27.26
2023-03-16T02:24:14.710Z,27.22
2023-03-16T02:28:14.764Z,27.22
2023-03-16T02:32:14.803Z,27.20
2023-03-16T02:36:14.828Z,27.28
2023-03-16T02:40:14.902Z,27.20
2023-03-16T02:44:14.958Z,27.25
2023-03-16T02:48:15.089Z,27.20
2023-03-16T02:52:15.077Z,27.23
2023-03-16T02:56:15.120Z,27.24
2023-03-16T03:00:15.101Z,27.30
2023-03-16T03:04:15.125Z,27.26
2023-03-16T03:08:15.112Z,27.28
2023-03-16T03:12:15.154Z,27.29
2023-03-16T03:16:15.357Z,27.29
2023-03-16T03:20:15.413Z,27.26
2023-03-16T03:24:15.470Z,27.25
2023-03-16T03:28:15.591Z,27.27
2023-03-16T03:32:15.726Z,27.26
2023-03-16T03:36:15.903Z,27.26
2023-03-16T03:40:15.971Z,27.30
2023-03-16T03:44:16.061Z,27.32
2023-03-16T03:48:16.185Z,27.27
2023-03-16T03:52:16.300Z,27.25
2023-03-16T03:56:16.372Z,27.26
2023-03-16T04:00:16.529Z,27.26
2023-03-16T04:04:16.565Z,27.25
2023-03-16T04:08:16.751Z,27.29
2023-03-16T04:12:16.599Z,27.27
2023-03-16T04:16:16.663Z,27.23
2023-03-16T04:20:16.631Z,27.26
2023-03-16T04:24:16.717Z,27.26
2023-03-16T04:28:16.730Z,27.23
2023-03-16T04:32:16.777Z,27.26
2023-03-16T04:36:16.941Z,27.24
2023-03-16T04:40:17.022Z,27.22
2023-03-16T04:44:17.211Z,27.23
2023-03-16T04:48:17.457Z,27.15
2023-03-16T04:52:17.449Z,27.16
2023-03-16T04:56:17.456Z,27.08
2023-03-16T05:00:17.399Z,27.08
2023-03-16T05:04:19.744Z,27.05
2023-03-16T05:08:17.369Z,27.05
2023-03-16T05:12:17.405Z,26.97
2023-03-16T05:16:17.417Z,26.94
2023-03-16T05:20:17.390Z,26.92
2023-03-16T05:24:17.362Z,26.89
2023-03-16T05:28:17.389Z,26.86
2023-03-16T05:32:17.406Z,26.84
2023-03-16T05:36:17.396Z,26.84
2023-03-16T05:40:17.489Z,26.77
2023-03-16T05:44:17.393Z,26.79
2023-03-16T05:48:17.243Z,26.82
2023-03-16T05:52:17.213Z,26.76
2023-03-16T05:56:17.121Z,26.75
2023-03-16T06:00:17.199Z,26.69
2023-03-16T06:04:17.296Z,26.69
2023-03-16T06:08:17.358Z,26.66
2023-03-16T06:12:17.053Z,26.36
2023-03-16T06:16:17.486Z,26.04
2023-03-16T06:20:16.989Z,26.35
2023-03-16T06:24:17.366Z,26.63
2023-03-16T06:28:17.363Z,26.87
2023-03-16T06:32:17.404Z,26.93
2023-03-16T06:36:17.389Z,27.04
2023-03-16T06:40:17.376Z,27.09
2023-03-16T06:44:16.881Z,27.22
2023-03-16T06:48:17.407Z,27.30
2023-03-16T06:52:17.385Z,27.31
2023-03-16T06:56:17.378Z,27.45
2023-03-16T07:00:17.392Z,27.44
2023-03-16T07:08:17.383Z,27.51
2023-03-16T07:12:17.382Z,27.55
2023-03-16T07:16:17.239Z,27.69
2023-03-16T07:20:17.404Z,27.91
2023-03-16T07:24:18.073Z,28.10
2023-03-16T07:28:17.382Z,28.10
2023-03-16T07:32:17.386Z,28.28
2023-03-16T07:36:17.440Z,28.48
2023-03-16T07:40:17.906Z,28.63
2023-03-16T07:44:17.916Z,28.78
2023-03-16T07:48:17.893Z,28.52
2023-03-16T07:52:18.964Z,28.42
2023-03-16T07:56:17.924Z,28.37
2023-03-16T08:00:18.392Z,28.31
2023-03-16T08:04:18.396Z,28.51
2023-03-16T08:08:18.502Z,28.45
2023-03-16T08:12:18.404Z,28.46
2023-03-16T08:16:21.478Z,28.38
2023-03-16T08:20:17.857Z,28.44
2023-03-16T08:24:17.936Z,28.57
2023-03-16T08:28:17.916Z,28.58
2023-03-16T08:32:17.909Z,28.57
2023-03-16T08:36:18.430Z,28.56
2023-03-16T08:40:18.440Z,28.49
2023-03-16T08:44:18.414Z,28.52
2023-03-16T08:48:18.416Z,28.54
2023-03-16T08:52:17.966Z,28.70
2023-03-16T08:56:18.441Z,29.20
2023-03-16T09:00:18.414Z,29.71
2023-03-16T09:04:19.024Z,29.91
2023-03-16T09:08:18.853Z,30.10
2023-03-16T09:12:18.791Z,30.19
2023-03-16T09:16:18.347Z,30.29
2023-03-16T09:20:22.716Z,30.34
2023-03-16T09:24:18.949Z,30.30
2023-03-16T09:28:20.941Z,30.40
2023-03-16T09:32:19.009Z,30.42
2023-03-16T09:36:18.460Z,30.35
2023-03-16T09:40:18.446Z,30.46
2023-03-16T09:44:18.473Z,29.98
2023-03-16T09:48:18.159Z,29.57
2023-03-16T09:52:18.445Z,29.55
2023-03-16T09:56:18.694Z,29.04
2023-03-16T10:00:18.475Z,29.14
2023-03-16T10:04:18.470Z,29.15
2023-03-16T10:08:18.449Z,29.20
2023-03-16T10:12:18.446Z,29.01
2023-03-16T10:16:18.540Z,28.68
2023-03-16T10:20:18.455Z,28.73
2023-03-16T10:24:18.175Z,28.77
2023-03-16T10:28:18.478Z,29.18
2023-03-16T10:32:18.473Z,29.13
2023-03-16T10:36:18.526Z,29.45
2023-03-16T10:40:19.178Z,29.58
2023-03-16T10:44:18.463Z,29.01
2023-03-16T10:48:18.478Z,28.56
2023-03-16T10:52:18.467Z,29.14
2023-03-16T10:56:18.148Z,29.32
2023-03-16T11:00:18.168Z,29.65
2023-03-16T11:04:18.536Z,29.61
2023-03-16T11:08:18.494Z,29.70
2023-03-16T11:12:18.504Z,29.69
2023-03-16T11:16:19.037Z,29.61
2023-03-16T11:20:19.140Z,29.84
2023-03-16T11:24:19.482Z,29.96
2023-03-16T11:28:19.489Z,29.39
2023-03-16T11:32:19.985Z,29.32
2023-03-16T11:36:20.093Z,28.62
2023-03-16T11:40:19.648Z,29.09
2023-03-16T11:44:20.002Z,29.08
2023-03-16T11:48:19.988Z,28.67
2023-03-16T11:52:20.007Z,29.05
2023-03-16T11:56:19.865Z,29.01
2023-03-16T12:00:20.024Z,28.82
2023-03-16T12:04:20.007Z,28.85
2023-03-16T12:08:20.517Z,28.64
2023-03-16T12:12:20.480Z,28.53
2023-03-16T12:16:20.504Z,28.61
2023-03-16T12:20:20.483Z,28.57
2023-03-16T12:24:20.155Z,28.36
2023-03-16T12:28:20.497Z,28.46
2023-03-16T12:32:20.513Z,28.64
2023-03-16T12:36:20.990Z,28.20
2023-03-16T12:40:20.564Z,28.43
2023-03-16T12:44:21.124Z,28.52
2023-03-16T12:48:20.990Z,28.45
2023-03-16T12:52:20.998Z,28.24
2023-03-16T12:56:21.018Z,28.62
2023-03-16T13:00:21.491Z,28.61
2023-03-16T13:04:21.682Z,28.39
2023-03-16T13:08:21.503Z,28.20
2023-03-16T13:12:21.540Z,28.52
2023-03-16T13:16:21.316Z,28.41
2023-03-16T13:20:30.210Z,28.34
2023-03-16T13:24:21.404Z,28.20
2023-03-16T13:28:21.535Z,28.29
2023-03-16T13:32:21.507Z,28.43
2023-03-16T13:36:21.413Z,28.66
2023-03-16T13:40:21.513Z,29.44
2023-03-16T13:44:21.539Z,30.73
2023-03-16T13:48:21.549Z,31.02
2023-03-16T13:52:21.453Z,30.68
2023-03-16T13:56:21.520Z,30.52
2023-03-16T14:00:21.541Z,30.20
2023-03-16T14:04:21.534Z,30.18
2023-03-16T14:08:21.519Z,30.08
2023-03-16T14:12:21.518Z,29.80
2023-03-16T14:16:21.652Z,29.76
2023-03-16T14:20:21.423Z,29.76
2023-03-16T14:24:21.577Z,29.47
2023-03-16T14:28:21.434Z,29.16
2023-03-16T14:32:21.559Z,29.35
2023-03-16T14:36:21.537Z,29.26
2023-03-16T14:40:21.540Z,29.25
2023-03-16T14:44:21.542Z,28.99
2023-03-16T14:48:21.566Z,29.06
2023-03-16T14:52:21.545Z,29.11
2023-03-16T14:56:21.545Z,28.99
2023-03-16T15:00:21.509Z,28.95
2023-03-16T15:04:21.574Z,28.83
2023-03-16T15:08:21.549Z,28.71
2023-03-16T15:12:21.514Z,28.74
2023-03-16T15:16:21.675Z,28.64
2023-03-16T15:20:24.039Z,28.47
2023-03-16T15:24:21.553Z,28.56
2023-03-16T15:28:21.556Z,28.63
2023-03-16T15:32:21.596Z,28.51
2023-03-16T15:36:21.560Z,28.68
2023-03-16T15:40:21.564Z,28.66
2023-03-16T15:44:21.547Z,28.71
2023-03-16T15:48:22.064Z,28.43
2023-03-16T15:52:21.586Z,28.46
2023-03-16T15:56:21.552Z,28.42
2023-03-16T16:00:21.559Z,28.46
2023-03-16T16:04:21.703Z,28.50
2023-03-16T16:08:21.655Z,28.45
2023-03-16T16:12:21.545Z,28.45
2023-03-16T16:16:21.621Z,28.46
2023-03-16T16:20:21.668Z,28.48
2023-03-16T16:24:21.539Z,28.48
2023-03-16T16:28:21.582Z,28.46
2023-03-16T16:32:21.567Z,28.42
2023-03-16T16:36:21.427Z,28.41
2023-03-16T16:40:21.424Z,28.48
2023-03-16T16:44:21.361Z,28.48
2023-03-16T16:48:21.307Z,28.44
2023-03-16T16:52:21.274Z,28.46
2023-03-16T16:56:21.254Z,28.45
2023-03-16T17:00:21.579Z,28.44
2023-03-16T17:04:21.254Z,28.45
2023-03-16T17:08:21.238Z,28.45
2023-03-16T17:12:21.309Z,28.49
2023-03-16T17:16:21.341Z,28.45
2023-03-16T17:20:21.313Z,28.45
2023-03-16T17:24:21.302Z,28.49
2023-03-16T17:28:21.340Z,28.49
2023-03-16T17:32:21.348Z,28.49
2023-03-16T17:36:21.385Z,28.49
2023-03-16T17:40:21.438Z,28.49
2023-03-16T17:44:21.633Z,28.50
2023-03-16T17:48:21.496Z,28.38
2023-03-16T17:52:21.506Z,28.47
2023-03-16T17:56:21.517Z,28.49
2023-03-16T18:00:21.570Z,28.46
2023-03-16T18:04:21.557Z,28.44
2023-03-16T18:08:21.564Z,28.42
2023-03-16T18:12:21.573Z,28.40
2023-03-16T18:16:21.675Z,28.42
2023-03-16T18:20:21.608Z,28.42
2023-03-16T18:24:21.605Z,28.38
2023-03-16T18:28:21.667Z,28.41
2023-03-16T18:32:21.672Z,28.38
2023-03-16T18:36:21.668Z,28.41
2023-03-16T18:40:21.702Z,28.35
2023-03-16T18:44:21.745Z,28.37
2023-03-16T18:48:21.802Z,28.38
2023-03-16T18:52:21.797Z,28.41
2023-03-16T18:56:21.832Z,28.43
2023-03-16T19:00:21.819Z,28.39
2023-03-16T19:04:21.864Z,28.42
2023-03-16T19:08:21.868Z,28.42
2023-03-16T19:12:21.904Z,28.36
2023-03-16T19:16:21.980Z,28.42
2023-03-16T19:20:21.987Z,28.39
2023-03-16T19:24:21.979Z,28.38
2023-03-16T19:28:22.011Z,28.39
2023-03-16T19:32:22.111Z,28.34
2023-03-16T19:36:22.155Z,28.41
2023-03-16T19:40:22.146Z,28.35
2023-03-16T19:44:22.190Z,28.38
2023-03-16T19:48:22.209Z,28.39
2023-03-16T19:52:22.283Z,28.38
2023-03-16T19:56:23.503Z,28.31
2023-03-16T20:00:22.400Z,28.33
2023-03-16T20:04:22.473Z,28.35
2023-03-16T20:08:22.680Z,28.32
2023-03-16T20:12:22.457Z,28.27
2023-03-16T20:16:22.522Z,28.27
2023-03-16T20:20:22.495Z,28.30
2023-03-16T20:24:22.540Z,28.28
2023-03-16T20:28:22.520Z,28.31
2023-03-16T20:32:22.525Z,28.27
2023-03-16T20:36:22.533Z,28.28
2023-03-16T20:40:22.568Z,28.30
2023-03-16T20:44:22.564Z,28.22
2023-03-16T20:48:22.598Z,28.28
2023-03-16T20:52:22.586Z,28.30
2023-03-16T20:56:22.638Z,28.26
2023-03-16T21:00:22.586Z,28.24
2023-03-16T21:04:22.609Z,28.19
2023-03-16T21:08:22.588Z,28.21
2023-03-16T21:12:22.615Z,28.16
2023-03-16T21:16:22.673Z,28.18
2023-03-16T21:20:22.607Z,28.18
2023-03-16T21:24:22.600Z,28.19
2023-03-16T21:28:22.625Z,28.15
2023-03-16T21:32:22.586Z,28.06
2023-03-16T21:36:22.581Z,28.11
2023-03-16T21:40:22.548Z,28.07
2023-03-16T21:44:22.557Z,28.07
2023-03-16T21:48:22.517Z,28.07
2023-03-16T21:52:22.471Z,28.03
2023-03-16T21:56:22.478Z,28.04
2023-03-16T22:00:22.467Z,28.03
2023-03-16T22:04:22.426Z,28.00
2023-03-16T22:08:22.464Z,28.03
2023-03-16T22:12:22.514Z,27.99
2023-03-16T22:16:22.693Z,27.96
2023-03-16T22:20:22.613Z,27.98
2023-03-16T22:24:22.684Z,27.96
2023-03-16T22:28:22.719Z,27.96
2023-03-16T22:32:22.844Z,27.93
2023-03-16T22:36:22.839Z,27.92
2023-03-16T22:40:22.851Z,27.94
2023-03-16T22:44:23.089Z,27.94
2023-03-16T22:48:22.971Z,27.93
2023-03-16T22:52:22.977Z,27.91
2023-03-16T22:56:23.027Z,27.88
2023-03-16T23:00:23.057Z,27.88
2023-03-16T23:04:23.210Z,27.88
2023-03-16T23:08:23.161Z,27.92
2023-03-16T23:12:23.212Z,27.88
2023-03-16T23:16:23.297Z,27.89
2023-03-16T23:20:23.359Z,27.91
2023-03-16T23:24:23.390Z,27.89
2023-03-16T23:28:23.439Z,27.87
2023-03-16T23:32:23.488Z,27.84
2023-03-16T23:36:23.553Z,27.84
2023-03-16T23:40:23.556Z,27.85
2023-03-16T23:44:23.601Z,27.83
2023-03-16T23:48:23.663Z,27.86
2023-03-16T23:52:23.695Z,27.81
2023-03-16T23:56:23.724Z,27.83
